sensor_id;sensor_type;location;lat;lon;timestamp;P1;durP1;ratioP1;P2;durP2;ratioP2
3916;SDS011;1973;50.518;7.318;2023-01-30T00:00:55;20.03;;;13.27;;
3916;SDS011;1973;50.518;7.318;2023-01-30T00:03:23;22.87;;;14.00;;
3916;SDS011;1973;50.518;7.318;2023-01-30T00:05:50;19.97;;;12.90;;
3916;SDS011;1973;50.518;7.318;2023-01-30T00:08:17;21.17;;;13.30;;
3916;SDS011;1973;50.518;7.318;2023-01-30T00:10:44;18.97;;;13.10;;
3916;SDS011;1973;50.518;7.318;2023-01-30T00:13:12;21.57;;;13.97;;
3916;SDS011;1973;50.518;7.318;2023-01-30T00:15:40;22.33;;;14.33;;
3916;SDS011;1973;50.518;7.318;2023-01-30T00:18:07;22.43;;;14.50;;
3916;SDS011;1973;50.518;7.318;2023-01-30T00:20:34;22.63;;;14.13;;
3916;SDS011;1973;50.518;7.318;2023-01-30T00:23:00;24.50;;;15.43;;
3916;SDS011;1973;50.518;7.318;2023-01-30T00:25:27;23.63;;;14.93;;
3916;SDS011;1973;50.518;7.318;2023-01-30T00:27:54;24.60;;;15.30;;
3916;SDS011;1973;50.518;7.318;2023-01-30T00:30:21;22.93;;;14.93;;
3916;SDS011;1973;50.518;7.318;2023-01-30T00:32:52;31.00;;;17.07;;
3916;SDS011;1973;50.518;7.318;2023-01-30T00:35:22;27.10;;;15.00;;
3916;SDS011;1973;50.518;7.318;2023-01-30T00:37:56;30.67;;;17.00;;
3916;SDS011;1973;50.518;7.318;2023-01-30T00:40:24;25.40;;;16.33;;
3916;SDS011;1973;50.518;7.318;2023-01-30T00:42:52;26.93;;;15.37;;
3916;SDS011;1973;50.518;7.318;2023-01-30T00:45:42;26.23;;;16.27;;
3916;SDS011;1973;50.518;7.318;2023-01-30T00:48:29;27.57;;;15.83;;
3916;SDS011;1973;50.518;7.318;2023-01-30T00:50:56;26.27;;;16.73;;
3916;SDS011;1973;50.518;7.318;2023-01-30T00:53:23;28.03;;;17.23;;
3916;SDS011;1973;50.518;7.318;2023-01-30T00:55:51;27.27;;;17.10;;
3916;SDS011;1973;50.518;7.318;2023-01-30T00:58:18;23.03;;;15.13;;
3916;SDS011;1973;50.518;7.318;2023-01-30T01:00:45;26.13;;;16.70;;
3916;SDS011;1973;50.518;7.318;2023-01-30T01:03:12;24.97;;;15.30;;
3916;SDS011;1973;50.518;7.318;2023-01-30T01:05:39;24.90;;;16.10;;
3916;SDS011;1973;50.518;7.318;2023-01-30T01:08:05;24.83;;;15.73;;
3916;SDS011;1973;50.518;7.318;2023-01-30T01:10:32;28.70;;;16.87;;
3916;SDS011;1973;50.518;7.318;2023-01-30T01:12:59;22.20;;;15.00;;
3916;SDS011;1973;50.518;7.318;2023-01-30T01:15:26;26.57;;;15.70;;
3916;SDS011;1973;50.518;7.318;2023-01-30T01:17:52;21.63;;;13.80;;
3916;SDS011;1973;50.518;7.318;2023-01-30T01:20:19;23.63;;;14.07;;
3916;SDS011;1973;50.518;7.318;2023-01-30T01:22:47;21.87;;;14.17;;
3916;SDS011;1973;50.518;7.318;2023-01-30T01:25:17;19.87;;;12.93;;
3916;SDS011;1973;50.518;7.318;2023-01-30T01:27:45;19.83;;;12.40;;
3916;SDS011;1973;50.518;7.318;2023-01-30T01:30:12;20.30;;;13.33;;
3916;SDS011;1973;50.518;7.318;2023-01-30T01:32:39;21.13;;;13.60;;
3916;SDS011;1973;50.518;7.318;2023-01-30T01:35:05;20.80;;;12.33;;
3916;SDS011;1973;50.518;7.318;2023-01-30T01:37:32;20.57;;;13.17;;
3916;SDS011;1973;50.518;7.318;2023-01-30T01:39:59;20.43;;;13.63;;
3916;SDS011;1973;50.518;7.318;2023-01-30T01:42:44;20.13;;;13.50;;
3916;SDS011;1973;50.518;7.318;2023-01-30T01:45:20;21.20;;;13.17;;
3916;SDS011;1973;50.518;7.318;2023-01-30T01:47:56;19.40;;;12.70;;
3916;SDS011;1973;50.518;7.318;2023-01-30T01:50:37;21.07;;;13.37;;
3916;SDS011;1973;50.518;7.318;2023-01-30T01:53:07;19.60;;;12.00;;
3916;SDS011;1973;50.518;7.318;2023-01-30T01:55:37;19.60;;;13.00;;
3916;SDS011;1973;50.518;7.318;2023-01-30T01:58:07;22.03;;;13.50;;
3916;SDS011;1973;50.518;7.318;2023-01-30T02:00:38;23.07;;;13.63;;
3916;SDS011;1973;50.518;7.318;2023-01-30T02:03:05;23.30;;;13.90;;
3916;SDS011;1973;50.518;7.318;2023-01-30T02:05:36;22.50;;;13.80;;
3916;SDS011;1973;50.518;7.318;2023-01-30T02:08:17;19.80;;;13.03;;
3916;SDS011;1973;50.518;7.318;2023-01-30T02:13:36;21.23;;;12.60;;
3916;SDS011;1973;50.518;7.318;2023-01-30T02:16:03;25.70;;;14.90;;
3916;SDS011;1973;50.518;7.318;2023-01-30T02:18:31;24.23;;;14.90;;
3916;SDS011;1973;50.518;7.318;2023-01-30T02:23:53;21.83;;;13.50;;
3916;SDS011;1973;50.518;7.318;2023-01-30T02:32:06;26.50;;;15.53;;
3916;SDS011;1973;50.518;7.318;2023-01-30T02:34:41;18.63;;;11.17;;
3916;SDS011;1973;50.518;7.318;2023-01-30T02:43:05;17.17;;;10.43;;
3916;SDS011;1973;50.518;7.318;2023-01-30T02:45:56;13.60;;;9.00;;
3916;SDS011;1973;50.518;7.318;2023-01-30T02:48:33;14.67;;;9.17;;
3916;SDS011;1973;50.518;7.318;2023-01-30T02:51:06;15.10;;;10.20;;
3916;SDS011;1973;50.518;7.318;2023-01-30T02:53:38;15.23;;;9.33;;
3916;SDS011;1973;50.518;7.318;2023-01-30T02:56:05;16.77;;;10.77;;
3916;SDS011;1973;50.518;7.318;2023-01-30T02:58:35;17.83;;;10.20;;
3916;SDS011;1973;50.518;7.318;2023-01-30T03:01:13;20.20;;;12.07;;
3916;SDS011;1973;50.518;7.318;2023-01-30T03:07:06;13.30;;;9.60;;
3916;SDS011;1973;50.518;7.318;2023-01-30T03:10:01;14.70;;;10.10;;
3916;SDS011;1973;50.518;7.318;2023-01-30T03:12:47;16.50;;;10.67;;
3916;SDS011;1973;50.518;7.318;2023-01-30T03:17:52;15.77;;;11.17;;
3916;SDS011;1973;50.518;7.318;2023-01-30T03:20:19;17.33;;;11.13;;
3916;SDS011;1973;50.518;7.318;2023-01-30T03:22:46;15.60;;;9.83;;
3916;SDS011;1973;50.518;7.318;2023-01-30T03:25:14;16.77;;;10.20;;
3916;SDS011;1973;50.518;7.318;2023-01-30T03:27:45;16.57;;;10.40;;
3916;SDS011;1973;50.518;7.318;2023-01-30T03:30:13;13.60;;;9.20;;
3916;SDS011;1973;50.518;7.318;2023-01-30T03:32:40;11.10;;;8.80;;
3916;SDS011;1973;50.518;7.318;2023-01-30T03:35:06;15.67;;;10.50;;
3916;SDS011;1973;50.518;7.318;2023-01-30T03:37:33;15.20;;;9.80;;
3916;SDS011;1973;50.518;7.318;2023-01-30T03:39:59;15.93;;;9.57;;
3916;SDS011;1973;50.518;7.318;2023-01-30T03:42:26;13.43;;;8.87;;
3916;SDS011;1973;50.518;7.318;2023-01-30T03:44:52;15.57;;;10.73;;
3916;SDS011;1973;50.518;7.318;2023-01-30T03:47:19;13.90;;;9.23;;
3916;SDS011;1973;50.518;7.318;2023-01-30T03:49:45;14.20;;;8.57;;
3916;SDS011;1973;50.518;7.318;2023-01-30T03:52:12;12.53;;;8.30;;
3916;SDS011;1973;50.518;7.318;2023-01-30T03:54:38;11.90;;;8.70;;
3916;SDS011;1973;50.518;7.318;2023-01-30T03:57:05;11.47;;;8.40;;
3916;SDS011;1973;50.518;7.318;2023-01-30T03:59:31;11.53;;;7.93;;
3916;SDS011;1973;50.518;7.318;2023-01-30T04:01:58;12.63;;;8.57;;
3916;SDS011;1973;50.518;7.318;2023-01-30T04:04:24;12.30;;;8.50;;
3916;SDS011;1973;50.518;7.318;2023-01-30T04:06:50;11.50;;;8.47;;
3916;SDS011;1973;50.518;7.318;2023-01-30T04:09:17;13.17;;;8.63;;
3916;SDS011;1973;50.518;7.318;2023-01-30T04:11:43;12.90;;;8.60;;
3916;SDS011;1973;50.518;7.318;2023-01-30T04:14:10;12.13;;;8.30;;
3916;SDS011;1973;50.518;7.318;2023-01-30T04:16:36;10.00;;;7.50;;
3916;SDS011;1973;50.518;7.318;2023-01-30T04:19:03;11.67;;;8.83;;
3916;SDS011;1973;50.518;7.318;2023-01-30T04:21:29;13.37;;;8.60;;
3916;SDS011;1973;50.518;7.318;2023-01-30T04:23:56;12.47;;;9.27;;
3916;SDS011;1973;50.518;7.318;2023-01-30T04:26:22;13.40;;;8.20;;
3916;SDS011;1973;50.518;7.318;2023-01-30T04:28:49;14.83;;;8.87;;
3916;SDS011;1973;50.518;7.318;2023-01-30T04:31:15;14.03;;;9.13;;
3916;SDS011;1973;50.518;7.318;2023-01-30T04:33:42;11.83;;;8.60;;
3916;SDS011;1973;50.518;7.318;2023-01-30T04:36:08;14.77;;;9.17;;
3916;SDS011;1973;50.518;7.318;2023-01-30T04:38:35;17.67;;;9.80;;
3916;SDS011;1973;50.518;7.318;2023-01-30T04:41:03;13.60;;;10.10;;
3916;SDS011;1973;50.518;7.318;2023-01-30T04:43:30;14.67;;;10.43;;
3916;SDS011;1973;50.518;7.318;2023-01-30T04:45:57;13.30;;;11.50;;
3916;SDS011;1973;50.518;7.318;2023-01-30T04:48:24;12.80;;;10.47;;
3916;SDS011;1973;50.518;7.318;2023-01-30T04:50:51;11.80;;;8.60;;
3916;SDS011;1973;50.518;7.318;2023-01-30T04:53:19;14.40;;;11.70;;
3916;SDS011;1973;50.518;7.318;2023-01-30T04:55:46;14.50;;;11.40;;
3916;SDS011;1973;50.518;7.318;2023-01-30T04:58:13;13.77;;;10.33;;
3916;SDS011;1973;50.518;7.318;2023-01-30T05:00:41;13.07;;;10.10;;
3916;SDS011;1973;50.518;7.318;2023-01-30T05:03:07;13.87;;;9.60;;
3916;SDS011;1973;50.518;7.318;2023-01-30T05:05:34;13.53;;;9.90;;
3916;SDS011;1973;50.518;7.318;2023-01-30T05:08:00;11.93;;;9.60;;
3916;SDS011;1973;50.518;7.318;2023-01-30T05:10:27;13.23;;;9.90;;
3916;SDS011;1973;50.518;7.318;2023-01-30T05:12:54;17.47;;;12.00;;
3916;SDS011;1973;50.518;7.318;2023-01-30T05:15:20;11.90;;;9.80;;
3916;SDS011;1973;50.518;7.318;2023-01-30T05:17:47;13.40;;;11.77;;
3916;SDS011;1973;50.518;7.318;2023-01-30T05:20:13;17.50;;;10.63;;
3916;SDS011;1973;50.518;7.318;2023-01-30T05:22:39;13.07;;;10.60;;
3916;SDS011;1973;50.518;7.318;2023-01-30T05:25:06;13.83;;;10.43;;
3916;SDS011;1973;50.518;7.318;2023-01-30T05:27:33;12.80;;;9.40;;
3916;SDS011;1973;50.518;7.318;2023-01-30T05:29:59;13.43;;;9.70;;
3916;SDS011;1973;50.518;7.318;2023-01-30T05:32:26;12.10;;;9.30;;
3916;SDS011;1973;50.518;7.318;2023-01-30T05:34:55;16.63;;;9.80;;
3916;SDS011;1973;50.518;7.318;2023-01-30T05:37:22;11.70;;;8.47;;
3916;SDS011;1973;50.518;7.318;2023-01-30T05:39:49;10.90;;;8.70;;
3916;SDS011;1973;50.518;7.318;2023-01-30T05:42:16;12.20;;;9.40;;
3916;SDS011;1973;50.518;7.318;2023-01-30T05:44:42;12.37;;;10.03;;
3916;SDS011;1973;50.518;7.318;2023-01-30T05:47:08;15.13;;;9.87;;
3916;SDS011;1973;50.518;7.318;2023-01-30T05:49:35;8.20;;;5.80;;
3916;SDS011;1973;50.518;7.318;2023-01-30T05:52:01;9.33;;;6.30;;
3916;SDS011;1973;50.518;7.318;2023-01-30T05:54:28;5.90;;;4.60;;
3916;SDS011;1973;50.518;7.318;2023-01-30T05:56:54;5.23;;;4.10;;
3916;SDS011;1973;50.518;7.318;2023-01-30T05:59:21;6.07;;;4.73;;
3916;SDS011;1973;50.518;7.318;2023-01-30T06:01:47;5.60;;;4.77;;
3916;SDS011;1973;50.518;7.318;2023-01-30T06:04:14;4.70;;;3.60;;
3916;SDS011;1973;50.518;7.318;2023-01-30T06:06:40;5.97;;;4.47;;
3916;SDS011;1973;50.518;7.318;2023-01-30T06:09:08;4.13;;;3.53;;
3916;SDS011;1973;50.518;7.318;2023-01-30T06:11:36;5.03;;;4.00;;
3916;SDS011;1973;50.518;7.318;2023-01-30T06:14:02;6.30;;;4.30;;
3916;SDS011;1973;50.518;7.318;2023-01-30T06:16:29;5.97;;;3.90;;
3916;SDS011;1973;50.518;7.318;2023-01-30T06:18:55;5.43;;;4.47;;
3916;SDS011;1973;50.518;7.318;2023-01-30T06:21:22;4.77;;;3.50;;
3916;SDS011;1973;50.518;7.318;2023-01-30T06:23:48;4.87;;;3.70;;
3916;SDS011;1973;50.518;7.318;2023-01-30T06:26:15;5.60;;;3.60;;
3916;SDS011;1973;50.518;7.318;2023-01-30T06:28:41;3.93;;;3.50;;
3916;SDS011;1973;50.518;7.318;2023-01-30T06:31:08;3.60;;;3.17;;
3916;SDS011;1973;50.518;7.318;2023-01-30T06:33:35;3.97;;;3.13;;
3916;SDS011;1973;50.518;7.318;2023-01-30T06:36:01;3.83;;;3.07;;
3916;SDS011;1973;50.518;7.318;2023-01-30T06:38:28;3.90;;;3.03;;
3916;SDS011;1973;50.518;7.318;2023-01-30T06:40:54;3.07;;;2.60;;
3916;SDS011;1973;50.518;7.318;2023-01-30T06:43:21;3.70;;;2.50;;
3916;SDS011;1973;50.518;7.318;2023-01-30T06:45:47;3.60;;;2.70;;
3916;SDS011;1973;50.518;7.318;2023-01-30T06:48:14;2.73;;;2.27;;
3916;SDS011;1973;50.518;7.318;2023-01-30T06:50:40;3.13;;;2.60;;
3916;SDS011;1973;50.518;7.318;2023-01-30T06:53:07;3.00;;;2.20;;
3916;SDS011;1973;50.518;7.318;2023-01-30T06:55:34;3.33;;;2.23;;
3916;SDS011;1973;50.518;7.318;2023-01-30T06:58:08;3.57;;;2.63;;
3916;SDS011;1973;50.518;7.318;2023-01-30T07:00:38;2.67;;;1.80;;
3916;SDS011;1973;50.518;7.318;2023-01-30T07:03:08;2.60;;;2.37;;
3916;SDS011;1973;50.518;7.318;2023-01-30T07:05:40;1.90;;;1.57;;
3916;SDS011;1973;50.518;7.318;2023-01-30T07:08:07;2.63;;;1.80;;
3916;SDS011;1973;50.518;7.318;2023-01-30T07:10:33;1.83;;;1.70;;
3916;SDS011;1973;50.518;7.318;2023-01-30T07:13:01;2.80;;;1.77;;
3916;SDS011;1973;50.518;7.318;2023-01-30T07:15:28;3.47;;;1.60;;
3916;SDS011;1973;50.518;7.318;2023-01-30T07:17:55;2.20;;;1.87;;
3916;SDS011;1973;50.518;7.318;2023-01-30T07:20:21;1.40;;;1.27;;
3916;SDS011;1973;50.518;7.318;2023-01-30T07:22:49;2.03;;;1.40;;
3916;SDS011;1973;50.518;7.318;2023-01-30T07:25:19;1.93;;;1.50;;
3916;SDS011;1973;50.518;7.318;2023-01-30T07:27:50;2.10;;;1.40;;
3916;SDS011;1973;50.518;7.318;2023-01-30T07:30:17;1.70;;;1.40;;
3916;SDS011;1973;50.518;7.318;2023-01-30T07:32:47;4.30;;;2.60;;
3916;SDS011;1973;50.518;7.318;2023-01-30T07:35:15;1.80;;;1.50;;
3916;SDS011;1973;50.518;7.318;2023-01-30T07:37:43;1.90;;;1.47;;
3916;SDS011;1973;50.518;7.318;2023-01-30T07:40:10;1.67;;;1.30;;
3916;SDS011;1973;50.518;7.318;2023-01-30T07:42:37;1.70;;;1.33;;
3916;SDS011;1973;50.518;7.318;2023-01-30T07:45:04;1.73;;;1.40;;
3916;SDS011;1973;50.518;7.318;2023-01-30T07:47:31;2.43;;;1.60;;
3916;SDS011;1973;50.518;7.318;2023-01-30T07:49:57;1.50;;;1.00;;
3916;SDS011;1973;50.518;7.318;2023-01-30T07:52:24;1.40;;;1.17;;
3916;SDS011;1973;50.518;7.318;2023-01-30T07:54:50;1.30;;;1.00;;
3916;SDS011;1973;50.518;7.318;2023-01-30T07:57:16;4.07;;;1.43;;
3916;SDS011;1973;50.518;7.318;2023-01-30T07:59:43;2.00;;;1.53;;
3916;SDS011;1973;50.518;7.318;2023-01-30T08:02:09;2.03;;;1.20;;
3916;SDS011;1973;50.518;7.318;2023-01-30T08:04:36;1.43;;;1.30;;
3916;SDS011;1973;50.518;7.318;2023-01-30T08:07:03;1.40;;;1.13;;
3916;SDS011;1973;50.518;7.318;2023-01-30T08:09:29;1.30;;;1.13;;
3916;SDS011;1973;50.518;7.318;2023-01-30T08:11:56;1.80;;;1.10;;
3916;SDS011;1973;50.518;7.318;2023-01-30T08:14:22;1.43;;;1.10;;
3916;SDS011;1973;50.518;7.318;2023-01-30T08:16:50;1.23;;;0.80;;
3916;SDS011;1973;50.518;7.318;2023-01-30T08:19:17;2.27;;;1.40;;
3916;SDS011;1973;50.518;7.318;2023-01-30T08:21:43;1.80;;;1.10;;
3916;SDS011;1973;50.518;7.318;2023-01-30T08:24:10;1.20;;;0.90;;
3916;SDS011;1973;50.518;7.318;2023-01-30T08:26:36;1.80;;;1.20;;
3916;SDS011;1973;50.518;7.318;2023-01-30T08:29:03;1.50;;;0.87;;
3916;SDS011;1973;50.518;7.318;2023-01-30T08:31:30;2.23;;;1.20;;
3916;SDS011;1973;50.518;7.318;2023-01-30T08:33:56;1.30;;;1.00;;
3916;SDS011;1973;50.518;7.318;2023-01-30T08:36:23;1.47;;;1.03;;
3916;SDS011;1973;50.518;7.318;2023-01-30T08:38:49;1.63;;;1.10;;
3916;SDS011;1973;50.518;7.318;2023-01-30T08:41:15;3.10;;;1.83;;
3916;SDS011;1973;50.518;7.318;2023-01-30T08:43:42;1.53;;;1.00;;
3916;SDS011;1973;50.518;7.318;2023-01-30T08:46:08;1.43;;;1.00;;
3916;SDS011;1973;50.518;7.318;2023-01-30T08:48:35;1.73;;;1.40;;
3916;SDS011;1973;50.518;7.318;2023-01-30T08:51:15;1.73;;;0.90;;
3916;SDS011;1973;50.518;7.318;2023-01-30T08:53:41;1.50;;;1.20;;
3916;SDS011;1973;50.518;7.318;2023-01-30T08:56:08;1.23;;;0.87;;
3916;SDS011;1973;50.518;7.318;2023-01-30T08:58:34;1.10;;;0.80;;
3916;SDS011;1973;50.518;7.318;2023-01-30T09:01:04;1.10;;;0.90;;
3916;SDS011;1973;50.518;7.318;2023-01-30T09:03:33;1.73;;;0.90;;
3916;SDS011;1973;50.518;7.318;2023-01-30T09:06:00;1.73;;;1.17;;
3916;SDS011;1973;50.518;7.318;2023-01-30T09:08:26;5.20;;;1.40;;
3916;SDS011;1973;50.518;7.318;2023-01-30T09:10:57;1.90;;;1.33;;
3916;SDS011;1973;50.518;7.318;2023-01-30T09:13:24;13.57;;;7.43;;
3916;SDS011;1973;50.518;7.318;2023-01-30T09:15:51;4.60;;;2.70;;
3916;SDS011;1973;50.518;7.318;2023-01-30T09:18:18;2.87;;;1.93;;
3916;SDS011;1973;50.518;7.318;2023-01-30T09:20:45;1.10;;;0.90;;
3916;SDS011;1973;50.518;7.318;2023-01-30T09:23:11;1.70;;;1.10;;
3916;SDS011;1973;50.518;7.318;2023-01-30T09:25:38;1.50;;;1.07;;
3916;SDS011;1973;50.518;7.318;2023-01-30T09:28:04;1.37;;;0.80;;
3916;SDS011;1973;50.518;7.318;2023-01-30T09:30:31;2.00;;;1.20;;
3916;SDS011;1973;50.518;7.318;2023-01-30T09:32:57;4.60;;;3.47;;
3916;SDS011;1973;50.518;7.318;2023-01-30T09:35:24;1.90;;;1.10;;
3916;SDS011;1973;50.518;7.318;2023-01-30T09:37:51;5.30;;;1.80;;
3916;SDS011;1973;50.518;7.318;2023-01-30T09:40:37;3.40;;;2.00;;
3916;SDS011;1973;50.518;7.318;2023-01-30T09:43:25;2.57;;;1.80;;
3916;SDS011;1973;50.518;7.318;2023-01-30T09:49:00;3.80;;;1.97;;
3916;SDS011;1973;50.518;7.318;2023-01-30T09:51:43;1.80;;;1.17;;
3916;SDS011;1973;50.518;7.318;2023-01-30T09:56:51;3.40;;;2.03;;
3916;SDS011;1973;50.518;7.318;2023-01-30T09:59:24;4.40;;;2.27;;
3916;SDS011;1973;50.518;7.318;2023-01-30T10:02:12;4.60;;;1.93;;
3916;SDS011;1973;50.518;7.318;2023-01-30T10:04:59;3.60;;;2.23;;
3916;SDS011;1973;50.518;7.318;2023-01-30T10:12:51;3.80;;;1.60;;
3916;SDS011;1973;50.518;7.318;2023-01-30T10:16:22;4.70;;;1.70;;
3916;SDS011;1973;50.518;7.318;2023-01-30T10:26:19;5.50;;;2.20;;
3916;SDS011;1973;50.518;7.318;2023-01-30T10:29:04;4.00;;;2.37;;
3916;SDS011;1973;50.518;7.318;2023-01-30T10:31:48;6.73;;;3.33;;
3916;SDS011;1973;50.518;7.318;2023-01-30T10:34:32;4.73;;;2.63;;
3916;SDS011;1973;50.518;7.318;2023-01-30T10:37:09;6.23;;;2.80;;
3916;SDS011;1973;50.518;7.318;2023-01-30T10:39:49;8.27;;;3.10;;
3916;SDS011;1973;50.518;7.318;2023-01-30T10:42:28;4.10;;;2.40;;
3916;SDS011;1973;50.518;7.318;2023-01-30T10:45:12;7.10;;;2.80;;
3916;SDS011;1973;50.518;7.318;2023-01-30T10:56:19;7.03;;;2.93;;
3916;SDS011;1973;50.518;7.318;2023-01-30T10:58:53;12.23;;;3.53;;
3916;SDS011;1973;50.518;7.318;2023-01-30T11:01:38;7.80;;;2.47;;
3916;SDS011;1973;50.518;7.318;2023-01-30T11:04:23;7.87;;;2.40;;
3916;SDS011;1973;50.518;7.318;2023-01-30T11:06:56;9.37;;;3.00;;
3916;SDS011;1973;50.518;7.318;2023-01-30T11:09:42;9.30;;;3.27;;
3916;SDS011;1973;50.518;7.318;2023-01-30T11:12:10;3.70;;;2.00;;
3916;SDS011;1973;50.518;7.318;2023-01-30T11:14:50;7.20;;;2.63;;
3916;SDS011;1973;50.518;7.318;2023-01-30T11:17:31;7.17;;;2.80;;
3916;SDS011;1973;50.518;7.318;2023-01-30T11:20:06;6.53;;;2.20;;
3916;SDS011;1973;50.518;7.318;2023-01-30T11:22:44;7.60;;;2.40;;
3916;SDS011;1973;50.518;7.318;2023-01-30T11:25:31;8.53;;;3.30;;
3916;SDS011;1973;50.518;7.318;2023-01-30T11:28:11;5.67;;;2.10;;
3916;SDS011;1973;50.518;7.318;2023-01-30T11:30:40;7.80;;;3.20;;
3916;SDS011;1973;50.518;7.318;2023-01-30T11:33:14;7.50;;;2.77;;
3916;SDS011;1973;50.518;7.318;2023-01-30T11:35:43;8.87;;;2.70;;
3916;SDS011;1973;50.518;7.318;2023-01-30T11:38:21;10.77;;;3.80;;
3916;SDS011;1973;50.518;7.318;2023-01-30T11:40:49;7.83;;;2.90;;
3916;SDS011;1973;50.518;7.318;2023-01-30T11:43:26;7.57;;;3.40;;
3916;SDS011;1973;50.518;7.318;2023-01-30T11:45:53;10.10;;;3.30;;
3916;SDS011;1973;50.518;7.318;2023-01-30T11:48:22;8.03;;;2.27;;
3916;SDS011;1973;50.518;7.318;2023-01-30T11:51:13;7.23;;;2.77;;
3916;SDS011;1973;50.518;7.318;2023-01-30T11:53:43;11.40;;;2.63;;
3916;SDS011;1973;50.518;7.318;2023-01-30T11:59:04;6.50;;;1.80;;
3916;SDS011;1973;50.518;7.318;2023-01-30T12:01:51;7.63;;;2.70;;
3916;SDS011;1973;50.518;7.318;2023-01-30T12:04:26;6.10;;;2.70;;
3916;SDS011;1973;50.518;7.318;2023-01-30T12:07:03;6.33;;;2.17;;
3916;SDS011;1973;50.518;7.318;2023-01-30T12:09:36;9.33;;;2.20;;
3916;SDS011;1973;50.518;7.318;2023-01-30T12:12:23;7.40;;;2.10;;
3916;SDS011;1973;50.518;7.318;2023-01-30T12:14:53;5.97;;;2.83;;
3916;SDS011;1973;50.518;7.318;2023-01-30T12:17:32;7.60;;;2.20;;
3916;SDS011;1973;50.518;7.318;2023-01-30T12:22:59;8.83;;;2.20;;
3916;SDS011;1973;50.518;7.318;2023-01-30T12:25:38;7.63;;;2.10;;
3916;SDS011;1973;50.518;7.318;2023-01-30T12:28:28;6.87;;;2.87;;
3916;SDS011;1973;50.518;7.318;2023-01-30T12:31:02;13.47;;;2.77;;
3916;SDS011;1973;50.518;7.318;2023-01-30T12:33:33;8.13;;;2.03;;
3916;SDS011;1973;50.518;7.318;2023-01-30T12:36:08;6.37;;;2.80;;
3916;SDS011;1973;50.518;7.318;2023-01-30T12:41:41;9.73;;;3.10;;
3916;SDS011;1973;50.518;7.318;2023-01-30T12:57:52;8.33;;;2.70;;
3916;SDS011;1973;50.518;7.318;2023-01-30T13:00:41;7.73;;;2.97;;
3916;SDS011;1973;50.518;7.318;2023-01-30T13:08:38;5.40;;;2.23;;
3916;SDS011;1973;50.518;7.318;2023-01-30T13:16:50;9.77;;;2.70;;
3916;SDS011;1973;50.518;7.318;2023-01-30T13:19:28;5.20;;;2.40;;
3916;SDS011;1973;50.518;7.318;2023-01-30T13:27:43;12.53;;;2.30;;
3916;SDS011;1973;50.518;7.318;2023-01-30T13:30:15;5.93;;;2.60;;
3916;SDS011;1973;50.518;7.318;2023-01-30T13:32:44;8.37;;;2.43;;
3916;SDS011;1973;50.518;7.318;2023-01-30T13:35:15;8.60;;;3.13;;
3916;SDS011;1973;50.518;7.318;2023-01-30T13:37:45;9.07;;;2.53;;
3916;SDS011;1973;50.518;7.318;2023-01-30T13:40:17;11.33;;;2.50;;
3916;SDS011;1973;50.518;7.318;2023-01-30T13:45:28;9.27;;;2.53;;
3916;SDS011;1973;50.518;7.318;2023-01-30T13:53:36;9.17;;;3.40;;
3916;SDS011;1973;50.518;7.318;2023-01-30T13:59:12;13.10;;;4.60;;
3916;SDS011;1973;50.518;7.318;2023-01-30T14:10:00;13.43;;;3.57;;
3916;SDS011;1973;50.518;7.318;2023-01-30T14:12:31;12.73;;;3.23;;
3916;SDS011;1973;50.518;7.318;2023-01-30T14:17:56;10.30;;;3.07;;
3916;SDS011;1973;50.518;7.318;2023-01-30T14:20:23;12.03;;;3.03;;
3916;SDS011;1973;50.518;7.318;2023-01-30T14:22:59;13.07;;;3.43;;
3916;SDS011;1973;50.518;7.318;2023-01-30T14:32:58;8.60;;;3.30;;
3916;SDS011;1973;50.518;7.318;2023-01-30T14:35:28;13.20;;;3.13;;
3916;SDS011;1973;50.518;7.318;2023-01-30T14:38:15;11.97;;;3.50;;
3916;SDS011;1973;50.518;7.318;2023-01-30T14:40:44;9.27;;;2.87;;
3916;SDS011;1973;50.518;7.318;2023-01-30T14:45:51;7.50;;;2.53;;
3916;SDS011;1973;50.518;7.318;2023-01-30T14:48:26;8.67;;;2.87;;
3916;SDS011;1973;50.518;7.318;2023-01-30T14:51:16;15.27;;;2.90;;
3916;SDS011;1973;50.518;7.318;2023-01-30T14:53:48;15.77;;;2.70;;
3916;SDS011;1973;50.518;7.318;2023-01-30T14:56:15;10.83;;;2.97;;
3916;SDS011;1973;50.518;7.318;2023-01-30T14:58:56;12.23;;;3.00;;
3916;SDS011;1973;50.518;7.318;2023-01-30T15:01:26;13.13;;;3.50;;
3916;SDS011;1973;50.518;7.318;2023-01-30T15:03:53;8.83;;;2.83;;
3916;SDS011;1973;50.518;7.318;2023-01-30T15:06:19;9.13;;;3.00;;
3916;SDS011;1973;50.518;7.318;2023-01-30T15:08:46;14.83;;;3.73;;
3916;SDS011;1973;50.518;7.318;2023-01-30T15:11:17;9.47;;;2.90;;
3916;SDS011;1973;50.518;7.318;2023-01-30T15:13:57;15.43;;;3.87;;
3916;SDS011;1973;50.518;7.318;2023-01-30T15:16:40;14.43;;;4.07;;
3916;SDS011;1973;50.518;7.318;2023-01-30T15:19:56;11.33;;;2.60;;
3916;SDS011;1973;50.518;7.318;2023-01-30T15:28:32;13.10;;;4.13;;
3916;SDS011;1973;50.518;7.318;2023-01-30T15:31:21;12.57;;;2.93;;
3916;SDS011;1973;50.518;7.318;2023-01-30T15:33:49;8.60;;;3.13;;
3916;SDS011;1973;50.518;7.318;2023-01-30T15:36:31;10.03;;;2.77;;
3916;SDS011;1973;50.518;7.318;2023-01-30T15:39:01;8.40;;;3.00;;
3916;SDS011;1973;50.518;7.318;2023-01-30T15:41:35;7.70;;;2.60;;
3916;SDS011;1973;50.518;7.318;2023-01-30T15:46:47;12.47;;;3.50;;
3916;SDS011;1973;50.518;7.318;2023-01-30T15:52:35;8.07;;;2.97;;
3916;SDS011;1973;50.518;7.318;2023-01-30T15:55:05;11.67;;;3.23;;
3916;SDS011;1973;50.518;7.318;2023-01-30T15:57:37;12.33;;;3.20;;
3916;SDS011;1973;50.518;7.318;2023-01-30T16:00:05;14.20;;;3.10;;
3916;SDS011;1973;50.518;7.318;2023-01-30T16:02:34;10.67;;;2.93;;
3916;SDS011;1973;50.518;7.318;2023-01-30T16:05:02;13.67;;;4.03;;
3916;SDS011;1973;50.518;7.318;2023-01-30T16:07:51;11.10;;;2.90;;
3916;SDS011;1973;50.518;7.318;2023-01-30T16:10:20;12.63;;;3.23;;
3916;SDS011;1973;50.518;7.318;2023-01-30T16:12:50;14.50;;;3.93;;
3916;SDS011;1973;50.518;7.318;2023-01-30T16:15:38;12.30;;;2.30;;
3916;SDS011;1973;50.518;7.318;2023-01-30T16:18:19;8.37;;;3.17;;
3916;SDS011;1973;50.518;7.318;2023-01-30T16:21:06;9.80;;;3.57;;
3916;SDS011;1973;50.518;7.318;2023-01-30T16:23:42;12.73;;;3.80;;
3916;SDS011;1973;50.518;7.318;2023-01-30T16:26:19;9.60;;;4.63;;
3916;SDS011;1973;50.518;7.318;2023-01-30T16:28:49;10.83;;;3.27;;
3916;SDS011;1973;50.518;7.318;2023-01-30T16:31:23;11.20;;;2.77;;
3916;SDS011;1973;50.518;7.318;2023-01-30T16:33:51;7.40;;;3.17;;
3916;SDS011;1973;50.518;7.318;2023-01-30T16:38:48;17.50;;;3.57;;
3916;SDS011;1973;50.518;7.318;2023-01-30T16:41:32;14.60;;;3.67;;
3916;SDS011;1973;50.518;7.318;2023-01-30T16:44:16;12.00;;;3.40;;
3916;SDS011;1973;50.518;7.318;2023-01-30T16:46:52;9.50;;;3.23;;
3916;SDS011;1973;50.518;7.318;2023-01-30T16:49:24;11.50;;;2.40;;
3916;SDS011;1973;50.518;7.318;2023-01-30T16:52:11;13.10;;;3.07;;
3916;SDS011;1973;50.518;7.318;2023-01-30T16:54:46;13.67;;;4.53;;
3916;SDS011;1973;50.518;7.318;2023-01-30T17:03:04;11.97;;;3.23;;
3916;SDS011;1973;50.518;7.318;2023-01-30T17:05:37;16.00;;;3.37;;
3916;SDS011;1973;50.518;7.318;2023-01-30T17:08:26;17.67;;;3.50;;
3916;SDS011;1973;50.518;7.318;2023-01-30T17:11:11;17.70;;;2.90;;
3916;SDS011;1973;50.518;7.318;2023-01-30T17:17:05;13.30;;;3.53;;
3916;SDS011;1973;50.518;7.318;2023-01-30T17:19:33;27.87;;;4.23;;
3916;SDS011;1973;50.518;7.318;2023-01-30T17:22:04;14.83;;;3.10;;
3916;SDS011;1973;50.518;7.318;2023-01-30T17:24:34;14.90;;;3.77;;
3916;SDS011;1973;50.518;7.318;2023-01-30T17:27:01;12.30;;;3.43;;
3916;SDS011;1973;50.518;7.318;2023-01-30T17:29:30;11.67;;;3.50;;
3916;SDS011;1973;50.518;7.318;2023-01-30T17:32:09;15.30;;;3.90;;
3916;SDS011;1973;50.518;7.318;2023-01-30T17:34:38;15.07;;;3.57;;
3916;SDS011;1973;50.518;7.318;2023-01-30T17:37:12;12.47;;;3.57;;
3916;SDS011;1973;50.518;7.318;2023-01-30T17:39:42;14.60;;;3.90;;
3916;SDS011;1973;50.518;7.318;2023-01-30T17:42:11;11.53;;;3.37;;
3916;SDS011;1973;50.518;7.318;2023-01-30T17:44:40;10.27;;;3.13;;
3916;SDS011;1973;50.518;7.318;2023-01-30T17:47:08;13.97;;;3.17;;
3916;SDS011;1973;50.518;7.318;2023-01-30T17:49:36;17.00;;;3.90;;
3916;SDS011;1973;50.518;7.318;2023-01-30T17:52:03;11.20;;;3.90;;
3916;SDS011;1973;50.518;7.318;2023-01-30T17:54:29;9.50;;;3.17;;